sensor_id;sensor_type;location;lat;lon;timestamp;P1;P2;P0
79117;PMS7003;68523;51.336;-0.846;2023-10-31T00:00:00;10;8;
79117;PMS7003;68523;51.336;-0.846;2023-10-31T00:03:00;15;8;
79117;PMS7003;68523;51.336;-0.846;2023-10-31T00:06:00;15;8;
79117;PMS7003;68523;51.336;-0.846;2023-10-31T00:09:00;9;9;
79117;PMS7003;68523;51.336;-0.846;2023-10-31T00:12:00;14;8;
79117;PMS7003;68523;51.336;-0.846;2023-10-31T00:15:00;14;8;
79117;PMS7003;68523;51.336;-0.846;2023-10-31T00:18:00;7;6;
79117;PMS7003;68523;51.336;-0.846;2023-10-31T00:21:00;7;6;
79117;PMS7003;68523;51.336;-0.846;2023-10-31T00:24:00;19;17;
79117;PMS7003;68523;51.336;-0.846;2023-10-31T00:27:00;26;23;
79117;PMS7003;68523;51.336;-0.846;2023-10-31T00:30:00;26;23;
79117;PMS7003;68523;51.336;-0.846;2023-10-31T00:33:00;35;28;
79117;PMS7003;68523;51.336;-0.846;2023-10-31T00:36:00;35;28;
79117;PMS7003;68523;51.336;-0.846;2023-10-31T00:39:00;37;27;
79117;PMS7003;68523;51.336;-0.846;2023-10-31T00:42:00;40;32;
79117;PMS7003;68523;51.336;-0.846;2023-10-31T00:45:00;40;32;
79117;PMS7003;68523;51.336;-0.846;2023-10-31T00:48:00;33;27;
79117;PMS7003;68523;51.336;-0.846;2023-10-31T00:51:00;33;27;
79117;PMS7003;68523;51.336;-0.846;2023-10-31T00:54:00;20;19;
79117;PMS7003;68523;51.336;-0.846;2023-10-31T00:57:00;29;24;
79117;PMS7003;68523;51.336;-0.846;2023-10-31T01:00:01;29;24;
79117;PMS7003;68523;51.336;-0.846;2023-10-31T01:03:00;23;22;
79117;PMS7003;68523;51.336;-0.846;2023-10-31T01:06:00;23;22;
79117;PMS7003;68523;51.336;-0.846;2023-10-31T01:09:00;24;21;
79117;PMS7003;68523;51.336;-0.846;2023-10-31T01:12:00;24;21;
79117;PMS7003;68523;51.336;-0.846;2023-10-31T01:15:00;22;18;
79117;PMS7003;68523;51.336;-0.846;2023-10-31T01:18:00;35;26;
79117;PMS7003;68523;51.336;-0.846;2023-10-31T01:21:00;35;26;
79117;PMS7003;68523;51.336;-0.846;2023-10-31T01:24:00;34;24;
79117;PMS7003;68523;51.336;-0.846;2023-10-31T01:27:00;34;24;
79117;PMS7003;68523;51.336;-0.846;2023-10-31T01:30:00;25;23;
79117;PMS7003;68523;51.336;-0.846;2023-10-31T01:33:00;22;20;
79117;PMS7003;68523;51.336;-0.846;2023-10-31T01:36:00;22;20;
79117;PMS7003;68523;51.336;-0.846;2023-10-31T01:39:00;31;25;
79117;PMS7003;68523;51.336;-0.846;2023-10-31T01:42:00;31;25;
79117;PMS7003;68523;51.336;-0.846;2023-10-31T01:45:00;38;27;
79117;PMS7003;68523;51.336;-0.846;2023-10-31T01:48:00;27;25;
79117;PMS7003;68523;51.336;-0.846;2023-10-31T01:51:01;27;25;
79117;PMS7003;68523;51.336;-0.846;2023-10-31T01:54:00;35;29;
79117;PMS7003;68523;51.336;-0.846;2023-10-31T01:57:00;35;29;
79117;PMS7003;68523;51.336;-0.846;2023-10-31T02:00:00;30;27;
79117;PMS7003;68523;51.336;-0.846;2023-10-31T02:03:00;27;26;
79117;PMS7003;68523;51.336;-0.846;2023-10-31T02:06:00;27;26;
79117;PMS7003;68523;51.336;-0.846;2023-10-31T02:09:00;33;28;
79117;PMS7003;68523;51.336;-0.846;2023-10-31T02:12:00;33;28;
79117;PMS7003;68523;51.336;-0.846;2023-10-31T02:15:00;26;26;
79117;PMS7003;68523;51.336;-0.846;2023-10-31T02:18:00;27;23;
79117;PMS7003;68523;51.336;-0.846;2023-10-31T02:21:00;27;23;
79117;PMS7003;68523;51.336;-0.846;2023-10-31T02:24:00;23;18;
79117;PMS7003;68523;51.336;-0.846;2023-10-31T02:27:00;23;18;
79117;PMS7003;68523;51.336;-0.846;2023-10-31T02:30:00;24;22;
79117;PMS7003;68523;51.336;-0.846;2023-10-31T02:33:00;25;17;
79117;PMS7003;68523;51.336;-0.846;2023-10-31T02:36:00;25;17;
79117;PMS7003;68523;51.336;-0.846;2023-10-31T02:39:00;24;21;
79117;PMS7003;68523;51.336;-0.846;2023-10-31T02:42:00;24;21;
79117;PMS7003;68523;51.336;-0.846;2023-10-31T02:45:00;9;8;
79117;PMS7003;68523;51.336;-0.846;2023-10-31T02:48:00;9;6;
79117;PMS7003;68523;51.336;-0.846;2023-10-31T02:51:00;9;6;
79117;PMS7003;68523;51.336;-0.846;2023-10-31T02:54:02;9;9;
79117;PMS7003;68523;51.336;-0.846;2023-10-31T02:57:00;9;9;
79117;PMS7003;68523;51.336;-0.846;2023-10-31T03:00:00;8;4;
79117;PMS7003;68523;51.336;-0.846;2023-10-31T03:03:00;9;4;
79117;PMS7003;68523;51.336;-0.846;2023-10-31T03:06:00;9;4;
79117;PMS7003;68523;51.336;-0.846;2023-10-31T03:09:00;9;5;
79117;PMS7003;68523;51.336;-0.846;2023-10-31T03:12:00;9;5;
79117;PMS7003;68523;51.336;-0.846;2023-10-31T03:15:00;5;5;
79117;PMS7003;68523;51.336;-0.846;2023-10-31T03:18:00;5;5;
79117;PMS7003;68523;51.336;-0.846;2023-10-31T03:21:00;5;5;
79117;PMS7003;68523;51.336;-0.846;2023-10-31T03:24:00;7;4;
79117;PMS7003;68523;51.336;-0.846;2023-10-31T03:27:00;7;4;
79117;PMS7003;68523;51.336;-0.846;2023-10-31T03:30:00;5;4;
79117;PMS7003;68523;51.336;-0.846;2023-10-31T03:33:00;8;3;
79117;PMS7003;68523;51.336;-0.846;2023-10-31T03:36:00;8;3;
79117;PMS7003;68523;51.336;-0.846;2023-10-31T03:39:00;9;5;
79117;PMS7003;68523;51.336;-0.846;2023-10-31T03:42:00;9;5;
79117;PMS7003;68523;51.336;-0.846;2023-10-31T03:45:00;5;4;
79117;PMS7003;68523;51.336;-0.846;2023-10-31T03:48:00;8;6;
79117;PMS7003;68523;51.336;-0.846;2023-10-31T03:51:00;8;6;
79117;PMS7003;68523;51.336;-0.846;2023-10-31T03:54:00;13;7;
79117;PMS7003;68523;51.336;-0.846;2023-10-31T03:57:00;13;7;
79117;PMS7003;68523;51.336;-0.846;2023-10-31T04:00:00;7;5;
79117;PMS7003;68523;51.336;-0.846;2023-10-31T04:03:00;15;8;
79117;PMS7003;68523;51.336;-0.846;2023-10-31T04:06:00;15;8;
79117;PMS7003;68523;51.336;-0.846;2023-10-31T04:09:00;13;8;
79117;PMS7003;68523;51.336;-0.846;2023-10-31T04:12:00;13;8;
79117;PMS7003;68523;51.336;-0.846;2023-10-31T04:15:00;17;11;
79117;PMS7003;68523;51.336;-0.846;2023-10-31T04:18:00;19;14;
79117;PMS7003;68523;51.336;-0.846;2023-10-31T04:21:00;19;14;
79117;PMS7003;68523;51.336;-0.846;2023-10-31T04:24:00;14;14;
79117;PMS7003;68523;51.336;-0.846;2023-10-31T04:27:00;14;14;
79117;PMS7003;68523;51.336;-0.846;2023-10-31T04:30:00;18;12;
79117;PMS7003;68523;51.336;-0.846;2023-10-31T04:33:00;16;16;
79117;PMS7003;68523;51.336;-0.846;2023-10-31T04:36:00;16;16;
79117;PMS7003;68523;51.336;-0.846;2023-10-31T04:39:00;14;12;
79117;PMS7003;68523;51.336;-0.846;2023-10-31T04:42:00;14;12;
79117;PMS7003;68523;51.336;-0.846;2023-10-31T04:45:00;15;12;
79117;PMS7003;68523;51.336;-0.846;2023-10-31T04:48:00;10;9;
79117;PMS7003;68523;51.336;-0.846;2023-10-31T04:51:00;10;9;
79117;PMS7003;68523;51.336;-0.846;2023-10-31T04:54:00;13;8;
79117;PMS7003;68523;51.336;-0.846;2023-10-31T04:57:00;13;8;
79117;PMS7003;68523;51.336;-0.846;2023-10-31T05:00:00;10;9;
79117;PMS7003;68523;51.336;-0.846;2023-10-31T05:03:00;7;4;
79117;PMS7003;68523;51.336;-0.846;2023-10-31T05:06:00;7;4;
79117;PMS7003;68523;51.336;-0.846;2023-10-31T05:09:00;9;8;
79117;PMS7003;68523;51.336;-0.846;2023-10-31T05:12:00;9;8;
79117;PMS7003;68523;51.336;-0.846;2023-10-31T05:15:00;14;13;
79117;PMS7003;68523;51.336;-0.846;2023-10-31T05:18:00;15;14;
79117;PMS7003;68523;51.336;-0.846;2023-10-31T05:21:00;15;14;
79117;PMS7003;68523;51.336;-0.846;2023-10-31T05:24:00;13;12;
79117;PMS7003;68523;51.336;-0.846;2023-10-31T05:27:00;13;12;
79117;PMS7003;68523;51.336;-0.846;2023-10-31T05:30:00;12;10;
79117;PMS7003;68523;51.336;-0.846;2023-10-31T05:33:00;13;10;
79117;PMS7003;68523;51.336;-0.846;2023-10-31T05:36:00;13;10;
79117;PMS7003;68523;51.336;-0.846;2023-10-31T05:39:00;11;9;
79117;PMS7003;68523;51.336;-0.846;2023-10-31T05:42:00;11;9;
79117;PMS7003;68523;51.336;-0.846;2023-10-31T05:45:00;10;8;
79117;PMS7003;68523;51.336;-0.846;2023-10-31T05:48:00;14;11;
79117;PMS7003;68523;51.336;-0.846;2023-10-31T05:51:00;14;11;
79117;PMS7003;68523;51.336;-0.846;2023-10-31T05:54:00;15;13;
79117;PMS7003;68523;51.336;-0.846;2023-10-31T05:57:00;15;13;
79117;PMS7003;68523;51.336;-0.846;2023-10-31T06:00:00;19;13;
79117;PMS7003;68523;51.336;-0.846;2023-10-31T06:03:00;10;10;
79117;PMS7003;68523;51.336;-0.846;2023-10-31T06:06:00;10;10;
79117;PMS7003;68523;51.336;-0.846;2023-10-31T06:09:00;18;12;
79117;PMS7003;68523;51.336;-0.846;2023-10-31T06:12:00;18;12;
79117;PMS7003;68523;51.336;-0.846;2023-10-31T06:15:00;17;12;
79117;PMS7003;68523;51.336;-0.846;2023-10-31T06:18:00;12;12;
79117;PMS7003;68523;51.336;-0.846;2023-10-31T06:21:00;12;12;
79117;PMS7003;68523;51.336;-0.846;2023-10-31T06:24:00;20;12;
79117;PMS7003;68523;51.336;-0.846;2023-10-31T06:27:00;20;12;
79117;PMS7003;68523;51.336;-0.846;2023-10-31T06:30:00;17;14;
79117;PMS7003;68523;51.336;-0.846;2023-10-31T06:33:00;36;21;
79117;PMS7003;68523;51.336;-0.846;2023-10-31T06:36:00;36;21;
79117;PMS7003;68523;51.336;-0.846;2023-10-31T06:39:00;14;9;
79117;PMS7003;68523;51.336;-0.846;2023-10-31T06:42:00;14;9;
79117;PMS7003;68523;51.336;-0.846;2023-10-31T06:45:00;12;9;
79117;PMS7003;68523;51.336;-0.846;2023-10-31T06:48:00;8;8;
79117;PMS7003;68523;51.336;-0.846;2023-10-31T06:51:00;8;8;
79117;PMS7003;68523;51.336;-0.846;2023-10-31T06:54:00;5;5;
79117;PMS7003;68523;51.336;-0.846;2023-10-31T06:57:00;5;5;
79117;PMS7003;68523;51.336;-0.846;2023-10-31T07:00:00;8;7;
79117;PMS7003;68523;51.336;-0.846;2023-10-31T07:03:00;9;7;
79117;PMS7003;68523;51.336;-0.846;2023-10-31T07:06:00;9;7;
79117;PMS7003;68523;51.336;-0.846;2023-10-31T07:09:00;18;10;
79117;PMS7003;68523;51.336;-0.846;2023-10-31T07:12:00;18;10;
79117;PMS7003;68523;51.336;-0.846;2023-10-31T07:15:00;8;6;
79117;PMS7003;68523;51.336;-0.846;2023-10-31T07:18:00;7;7;
79117;PMS7003;68523;51.336;-0.846;2023-10-31T07:21:00;7;7;
79117;PMS7003;68523;51.336;-0.846;2023-10-31T07:24:00;12;9;
79117;PMS7003;68523;51.336;-0.846;2023-10-31T07:27:00;12;9;
79117;PMS7003;68523;51.336;-0.846;2023-10-31T07:30:01;10;7;
79117;PMS7003;68523;51.336;-0.846;2023-10-31T07:33:00;9;6;
79117;PMS7003;68523;51.336;-0.846;2023-10-31T07:36:00;9;6;
79117;PMS7003;68523;51.336;-0.846;2023-10-31T07:39:00;7;6;
79117;PMS7003;68523;51.336;-0.846;2023-10-31T07:42:00;7;6;
79117;PMS7003;68523;51.336;-0.846;2023-10-31T07:45:00;7;7;
79117;PMS7003;68523;51.336;-0.846;2023-10-31T07:48:00;33;16;
79117;PMS7003;68523;51.336;-0.846;2023-10-31T07:51:00;33;16;
79117;PMS7003;68523;51.336;-0.846;2023-10-31T07:54:00;14;10;
79117;PMS7003;68523;51.336;-0.846;2023-10-31T07:57:00;14;10;
79117;PMS7003;68523;51.336;-0.846;2023-10-31T08:00:00;20;13;
79117;PMS7003;68523;51.336;-0.846;2023-10-31T08:03:00;20;13;
79117;PMS7003;68523;51.336;-0.846;2023-10-31T08:06:00;10;8;
79117;PMS7003;68523;51.336;-0.846;2023-10-31T08:09:00;46;19;
79117;PMS7003;68523;51.336;-0.846;2023-10-31T08:12:00;46;19;
79117;PMS7003;68523;51.336;-0.846;2023-10-31T08:15:00;10;9;
79117;PMS7003;68523;51.336;-0.846;2023-10-31T08:18:00;10;9;
79117;PMS7003;68523;51.336;-0.846;2023-10-31T08:21:00;9;6;
79117;PMS7003;68523;51.336;-0.846;2023-10-31T08:24:00;4;4;
79117;PMS7003;68523;51.336;-0.846;2023-10-31T08:27:00;4;4;
79117;PMS7003;68523;51.336;-0.846;2023-10-31T08:30:00;5;3;
79117;PMS7003;68523;51.336;-0.846;2023-10-31T08:33:00;5;3;
79117;PMS7003;68523;51.336;-0.846;2023-10-31T08:36:00;4;2;
79117;PMS7003;68523;51.336;-0.846;2023-10-31T08:39:00;3;3;
79117;PMS7003;68523;51.336;-0.846;2023-10-31T08:42:00;3;3;
79117;PMS7003;68523;51.336;-0.846;2023-10-31T08:45:00;3;3;
79117;PMS7003;68523;51.336;-0.846;2023-10-31T08:48:00;3;3;
79117;PMS7003;68523;51.336;-0.846;2023-10-31T08:51:00;3;3;
79117;PMS7003;68523;51.336;-0.846;2023-10-31T08:54:00;5;4;
79117;PMS7003;68523;51.336;-0.846;2023-10-31T08:57:00;5;4;
79117;PMS7003;68523;51.336;-0.846;2023-10-31T09:00:00;4;3;
79117;PMS7003;68523;51.336;-0.846;2023-10-31T09:03:00;4;3;
79117;PMS7003;68523;51.336;-0.846;2023-10-31T09:06:00;4;4;
79117;PMS7003;68523;51.336;-0.846;2023-10-31T09:09:00;4;4;
79117;PMS7003;68523;51.336;-0.846;2023-10-31T09:12:00;4;4;
79117;PMS7003;68523;51.336;-0.846;2023-10-31T09:15:00;9;6;
79117;PMS7003;68523;51.336;-0.846;2023-10-31T09:18:00;9;6;
79117;PMS7003;68523;51.336;-0.846;2023-10-31T09:21:00;4;3;
79117;PMS7003;68523;51.336;-0.846;2023-10-31T09:24:00;5;5;
79117;PMS7003;68523;51.336;-0.846;2023-10-31T09:27:00;5;5;
79117;PMS7003;68523;51.336;-0.846;2023-10-31T09:30:00;4;3;
79117;PMS7003;68523;51.336;-0.846;2023-10-31T09:33:00;4;3;
79117;PMS7003;68523;51.336;-0.846;2023-10-31T09:36:00;4;3;
79117;PMS7003;68523;51.336;-0.846;2023-10-31T09:39:00;5;3;
79117;PMS7003;68523;51.336;-0.846;2023-10-31T09:42:00;5;3;
79117;PMS7003;68523;51.336;-0.846;2023-10-31T09:45:00;4;3;
79117;PMS7003;68523;51.336;-0.846;2023-10-31T09:48:00;4;3;
79117;PMS7003;68523;51.336;-0.846;2023-10-31T09:51:00;4;4;
79117;PMS7003;68523;51.336;-0.846;2023-10-31T09:54:01;6;3;
79117;PMS7003;68523;51.336;-0.846;2023-10-31T09:57:00;6;3;
79117;PMS7003;68523;51.336;-0.846;2023-10-31T10:00:00;4;2;
79117;PMS7003;68523;51.336;-0.846;2023-10-31T10:03:00;4;2;
79117;PMS7003;68523;51.336;-0.846;2023-10-31T10:06:01;4;3;
79117;PMS7003;68523;51.336;-0.846;2023-10-31T10:09:00;1;1;
79117;PMS7003;68523;51.336;-0.846;2023-10-31T10:12:00;1;1;
79117;PMS7003;68523;51.336;-0.846;2023-10-31T10:15:00;5;4;
79117;PMS7003;68523;51.336;-0.846;2023-10-31T10:18:00;5;4;
79117;PMS7003;68523;51.336;-0.846;2023-10-31T10:21:01;5;5;
79117;PMS7003;68523;51.336;-0.846;2023-10-31T10:24:00;5;5;
79117;PMS7003;68523;51.336;-0.846;2023-10-31T10:27:00;5;5;
79117;PMS7003;68523;51.336;-0.846;2023-10-31T10:30:00;4;4;
79117;PMS7003;68523;51.336;-0.846;2023-10-31T10:33:00;4;4;
79117;PMS7003;68523;51.336;-0.846;2023-10-31T10:36:00;5;4;
79117;PMS7003;68523;51.336;-0.846;2023-10-31T10:39:00;3;2;
79117;PMS7003;68523;51.336;-0.846;2023-10-31T10:42:00;3;2;
79117;PMS7003;68523;51.336;-0.846;2023-10-31T10:45:02;1;1;
79117;PMS7003;68523;51.336;-0.846;2023-10-31T10:48:00;1;1;
79117;PMS7003;68523;51.336;-0.846;2023-10-31T10:51:03;3;1;
79117;PMS7003;68523;51.336;-0.846;2023-10-31T10:54:02;1;1;
79117;PMS7003;68523;51.336;-0.846;2023-10-31T10:57:03;1;1;
79117;PMS7003;68523;51.336;-0.846;2023-10-31T11:00:01;2;1;
79117;PMS7003;68523;51.336;-0.846;2023-10-31T11:03:00;2;1;
79117;PMS7003;68523;51.336;-0.846;2023-10-31T11:06:00;2;2;
79117;PMS7003;68523;51.336;-0.846;2023-10-31T11:09:00;1;1;
79117;PMS7003;68523;51.336;-0.846;2023-10-31T11:12:00;1;1;
79117;PMS7003;68523;51.336;-0.846;2023-10-31T11:15:01;4;1;
79117;PMS7003;68523;51.336;-0.846;2023-10-31T11:18:00;4;1;
79117;PMS7003;68523;51.336;-0.846;2023-10-31T11:21:00;1;1;
79117;PMS7003;68523;51.336;-0.846;2023-10-31T11:24:00;0;0;
79117;PMS7003;68523;51.336;-0.846;2023-10-31T11:27:00;0;0;
79117;PMS7003;68523;51.336;-0.846;2023-10-31T11:30:00;0;0;
79117;PMS7003;68523;51.336;-0.846;2023-10-31T11:33:00;0;0;
79117;PMS7003;68523;51.336;-0.846;2023-10-31T11:36:00;1;1;
79117;PMS7003;68523;51.336;-0.846;2023-10-31T11:42:00;2;2;
79117;PMS7003;68523;51.336;-0.846;2023-10-31T11:45:00;1;1;
79117;PMS7003;68523;51.336;-0.846;2023-10-31T11:48:00;1;1;
79117;PMS7003;68523;51.336;-0.846;2023-10-31T11:51:00;1;0;
79117;PMS7003;68523;51.336;-0.846;2023-10-31T11:54:01;4;4;
79117;PMS7003;68523;51.336;-0.846;2023-10-31T11:57:00;4;4;
79117;PMS7003;68523;51.336;-0.846;2023-10-31T12:00:00;1;1;
79117;PMS7003;68523;51.336;-0.846;2023-10-31T12:03:00;1;1;
79117;PMS7003;68523;51.336;-0.846;2023-10-31T12:06:00;3;1;
79117;PMS7003;68523;51.336;-0.846;2023-10-31T12:09:00;1;1;
79117;PMS7003;68523;51.336;-0.846;2023-10-31T12:12:00;1;1;
79117;PMS7003;68523;51.336;-0.846;2023-10-31T12:15:04;2;1;
79117;PMS7003;68523;51.336;-0.846;2023-10-31T12:18:00;2;1;
79117;PMS7003;68523;51.336;-0.846;2023-10-31T12:21:00;1;1;
79117;PMS7003;68523;51.336;-0.846;2023-10-31T12:24:02;1;1;
79117;PMS7003;68523;51.336;-0.846;2023-10-31T12:27:00;1;1;
79117;PMS7003;68523;51.336;-0.846;2023-10-31T12:30:00;2;0;
79117;PMS7003;68523;51.336;-0.846;2023-10-31T12:33:00;2;0;
79117;PMS7003;68523;51.336;-0.846;2023-10-31T12:36:00;3;1;
79117;PMS7003;68523;51.336;-0.846;2023-10-31T12:39:00;0;0;
79117;PMS7003;68523;51.336;-0.846;2023-10-31T12:42:00;0;0;
79117;PMS7003;68523;51.336;-0.846;2023-10-31T12:45:00;2;1;
79117;PMS7003;68523;51.336;-0.846;2023-10-31T12:48:00;2;1;
79117;PMS7003;68523;51.336;-0.846;2023-10-31T12:51:07;2;1;
79117;PMS7003;68523;51.336;-0.846;2023-10-31T12:54:00;6;4;
79117;PMS7003;68523;51.336;-0.846;2023-10-31T12:57:00;6;4;
79117;PMS7003;68523;51.336;-0.846;2023-10-31T13:00:00;0;0;
79117;PMS7003;68523;51.336;-0.846;2023-10-31T13:03:01;0;0;
79117;PMS7003;68523;51.336;-0.846;2023-10-31T13:06:00;0;0;
79117;PMS7003;68523;51.336;-0.846;2023-10-31T13:09:00;1;1;
79117;PMS7003;68523;51.336;-0.846;2023-10-31T13:12:00;1;1;
79117;PMS7003;68523;51.336;-0.846;2023-10-31T13:15:00;0;0;
79117;PMS7003;68523;51.336;-0.846;2023-10-31T13:18:00;0;0;
79117;PMS7003;68523;51.336;-0.846;2023-10-31T13:21:00;0;0;
79117;PMS7003;68523;51.336;-0.846;2023-10-31T13:24:00;2;2;
79117;PMS7003;68523;51.336;-0.846;2023-10-31T13:27:00;2;2;
79117;PMS7003;68523;51.336;-0.846;2023-10-31T13:30:00;0;0;
79117;PMS7003;68523;51.336;-0.846;2023-10-31T13:33:00;0;0;
79117;PMS7003;68523;51.336;-0.846;2023-10-31T13:36:00;2;2;
79117;PMS7003;68523;51.336;-0.846;2023-10-31T13:39:00;2;2;
79117;PMS7003;68523;51.336;-0.846;2023-10-31T13:42:00;2;2;
79117;PMS7003;68523;51.336;-0.846;2023-10-31T13:45:00;3;2;
79117;PMS7003;68523;51.336;-0.846;2023-10-31T13:48:00;3;2;
79117;PMS7003;68523;51.336;-0.846;2023-10-31T13:51:00;1;1;
79117;PMS7003;68523;51.336;-0.846;2023-10-31T13:54:00;1;1;
79117;PMS7003;68523;51.336;-0.846;2023-10-31T13:57:00;1;1;
79117;PMS7003;68523;51.336;-0.846;2023-10-31T14:00:00;1;1;
79117;PMS7003;68523;51.336;-0.846;2023-10-31T14:03:00;1;1;
79117;PMS7003;68523;51.336;-0.846;2023-10-31T14:06:00;0;0;
79117;PMS7003;68523;51.336;-0.846;2023-10-31T14:09:00;0;0;
79117;PMS7003;68523;51.336;-0.846;2023-10-31T14:12:00;0;0;
79117;PMS7003;68523;51.336;-0.846;2023-10-31T14:15:00;3;0;
79117;PMS7003;68523;51.336;-0.846;2023-10-31T14:18:00;3;0;
79117;PMS7003;68523;51.336;-0.846;2023-10-31T14:21:00;2;1;
79117;PMS7003;68523;51.336;-0.846;2023-10-31T14:24:00;1;0;
79117;PMS7003;68523;51.336;-0.846;2023-10-31T14:27:00;1;0;
79117;PMS7003;68523;51.336;-0.846;2023-10-31T14:30:00;1;1;
79117;PMS7003;68523;51.336;-0.846;2023-10-31T14:33:00;1;1;
79117;PMS7003;68523;51.336;-0.846;2023-10-31T14:36:00;1;1;
79117;PMS7003;68523;51.336;-0.846;2023-10-31T14:39:00;2;2;
79117;PMS7003;68523;51.336;-0.846;2023-10-31T14:42:00;2;2;
79117;PMS7003;68523;51.336;-0.846;2023-10-31T14:45:00;1;1;
79117;PMS7003;68523;51.336;-0.846;2023-10-31T14:48:00;1;1;
79117;PMS7003;68523;51.336;-0.846;2023-10-31T14:51:00;4;2;
79117;PMS7003;68523;51.336;-0.846;2023-10-31T14:54:00;3;1;
79117;PMS7003;68523;51.336;-0.846;2023-10-31T14:57:00;3;1;
79117;PMS7003;68523;51.336;-0.846;2023-10-31T15:00:00;2;1;
79117;PMS7003;68523;51.336;-0.846;2023-10-31T15:03:00;2;1;
79117;PMS7003;68523;51.336;-0.846;2023-10-31T15:06:00;3;2;
79117;PMS7003;68523;51.336;-0.846;2023-10-31T15:09:00;5;3;
79117;PMS7003;68523;51.336;-0.846;2023-10-31T15:12:00;5;3;
79117;PMS7003;68523;51.336;-0.846;2023-10-31T15:15:00;2;2;
79117;PMS7003;68523;51.336;-0.846;2023-10-31T15:18:00;2;2;
79117;PMS7003;68523;51.336;-0.846;2023-10-31T15:21:00;1;1;
79117;PMS7003;68523;51.336;-0.846;2023-10-31T15:24:00;8;3;
79117;PMS7003;68523;51.336;-0.846;2023-10-31T15:27:00;8;3;
79117;PMS7003;68523;51.336;-0.846;2023-10-31T15:30:00;1;1;
79117;PMS7003;68523;51.336;-0.846;2023-10-31T15:33:00;1;1;
79117;PMS7003;68523;51.336;-0.846;2023-10-31T15:36:00;4;3;
79117;PMS7003;68523;51.336;-0.846;2023-10-31T15:39:00;4;3;
79117;PMS7003;68523;51.336;-0.846;2023-10-31T15:42:00;2;1;
79117;PMS7003;68523;51.336;-0.846;2023-10-31T15:45:00;2;2;
79117;PMS7003;68523;51.336;-0.846;2023-10-31T15:48:00;2;2;
79117;PMS7003;68523;51.336;-0.846;2023-10-31T15:51:00;4;3;
79117;PMS7003;68523;51.336;-0.846;2023-10-31T15:54:00;4;3;
79117;PMS7003;68523;51.336;-0.846;2023-10-31T15:57:00;3;3;
79117;PMS7003;68523;51.336;-0.846;2023-10-31T16:00:00;4;1;
79117;PMS7003;68523;51.336;-0.846;2023-10-31T16:03:00;4;1;
79117;PMS7003;68523;51.336;-0.846;2023-10-31T16:06:00;3;1;
79117;PMS7003;68523;51.336;-0.846;2023-10-31T16:09:00;3;1;
79117;PMS7003;68523;51.336;-0.846;2023-10-31T16:12:00;4;3;
79117;PMS7003;68523;51.336;-0.846;2023-10-31T16:15:00;4;1;
79117;PMS7003;68523;51.336;-0.846;2023-10-31T16:18:00;4;1;
79117;PMS7003;68523;51.336;-0.846;2023-10-31T16:21:00;2;2;
79117;PMS7003;68523;51.336;-0.846;2023-10-31T16:24:00;2;2;
79117;PMS7003;68523;51.336;-0.846;2023-10-31T16:27:00;4;2;
79117;PMS7003;68523;51.336;-0.846;2023-10-31T16:30:00;3;2;
79117;PMS7003;68523;51.336;-0.846;2023-10-31T16:33:00;3;2;
79117;PMS7003;68523;51.336;-0.846;2023-10-31T16:36:00;3;2;
79117;PMS7003;68523;51.336;-0.846;2023-10-31T16:39:00;3;2;
79117;PMS7003;68523;51.336;-0.846;2023-10-31T16:42:00;6;2;
79117;PMS7003;68523;51.336;-0.846;2023-10-31T16:45:00;1;1;
79117;PMS7003;68523;51.336;-0.846;2023-10-31T16:48:00;1;1;
79117;PMS7003;68523;51.336;-0.846;2023-10-31T16:51:00;2;2;
79117;PMS7003;68523;51.336;-0.846;2023-10-31T16:54:00;2;2;
79117;PMS7003;68523;51.336;-0.846;2023-10-31T16:57:00;34;28;
79117;PMS7003;68523;51.336;-0.846;2023-10-31T17:00:00;29;22;
79117;PMS7003;68523;51.336;-0.846;2023-10-31T17:03:00;29;22;
79117;PMS7003;68523;51.336;-0.846;2023-10-31T17:06:00;12;10;
79117;PMS7003;68523;51.336;-0.846;2023-10-31T17:09:00;12;10;
79117;PMS7003;68523;51.336;-0.846;2023-10-31T17:12:00;3;2;
79117;PMS7003;68523;51.336;-0.846;2023-10-31T17:15:00;5;4;
79117;PMS7003;68523;51.336;-0.846;2023-10-31T17:18:00;5;4;
79117;PMS7003;68523;51.336;-0.846;2023-10-31T17:21:00;6;4;
79117;PMS7003;68523;51.336;-0.846;2023-10-31T17:24:00;6;4;
79117;PMS7003;68523;51.336;-0.846;2023-10-31T17:27:00;6;5;
79117;PMS7003;68523;51.336;-0.846;2023-10-31T17:30:00;5;5;
79117;PMS7003;68523;51.336;-0.846;2023-10-31T17:33:00;5;5;
79117;PMS7003;68523;51.336;-0.846;2023-10-31T17:36:00;6;5;
79117;PMS7003;68523;51.336;-0.846;2023-10-31T17:39:00;6;5;
79117;PMS7003;68523;51.336;-0.846;2023-10-31T17:42:00;6;6;
79117;PMS7003;68523;51.336;-0.846;2023-10-31T17:45:00;4;3;
79117;PMS7003;68523;51.336;-0.846;2023-10-31T17:48:00;4;3;
79117;PMS7003;68523;51.336;-0.846;2023-10-31T17:51:00;5;4;
79117;PMS7003;68523;51.336;-0.846;2023-10-31T17:54:00;5;4;
79117;PMS7003;68523;51.336;-0.846;2023-10-31T17:57:00;6;4;
79117;PMS7003;68523;51.336;-0.846;2023-10-31T18:00:00;7;2;
79117;PMS7003;68523;51.336;-0.846;2023-10-31T18:03:00;7;2;
79117;PMS7003;68523;51.336;-0.846;2023-10-31T18:06:00;6;3;
79117;PMS7003;68523;51.336;-0.846;2023-10-31T18:09:00;6;3;
79117;PMS7003;68523;51.336;-0.846;2023-10-31T18:12:00;3;2;
79117;PMS7003;68523;51.336;-0.846;2023-10-31T18:15:00;5;3;
79117;PMS7003;68523;51.336;-0.846;2023-10-31T18:18:00;5;3;
79117;PMS7003;68523;51.336;-0.846;2023-10-31T18:21:00;4;2;
79117;PMS7003;68523;51.336;-0.846;2023-10-31T18:24:00;4;2;
79117;PMS7003;68523;51.336;-0.846;2023-10-31T18:27:00;4;3;
79117;PMS7003;68523;51.336;-0.846;2023-10-31T18:30:00;4;2;
79117;PMS7003;68523;51.336;-0.846;2023-10-31T18:33:00;4;2;
79117;PMS7003;68523;51.336;-0.846;2023-10-31T18:36:00;4;2;
79117;PMS7003;68523;51.336;-0.846;2023-10-31T18:39:00;4;2;
79117;PMS7003;68523;51.336;-0.846;2023-10-31T18:42:00;6;3;
79117;PMS7003;68523;51.336;-0.846;2023-10-31T18:45:00;3;2;
79117;PMS7003;68523;51.336;-0.846;2023-10-31T18:48:00;3;2;
79117;PMS7003;68523;51.336;-0.846;2023-10-31T18:51:00;9;3;
79117;PMS7003;68523;51.336;-0.846;2023-10-31T18:54:00;9;3;
79117;PMS7003;68523;51.336;-0.846;2023-10-31T18:57:00;4;2;
79117;PMS7003;68523;51.336;-0.846;2023-10-31T19:00:00;4;2;
79117;PMS7003;68523;51.336;-0.846;2023-10-31T19:03:00;4;2;
79117;PMS7003;68523;51.336;-0.846;2023-10-31T19:06:00;2;2;
79117;PMS7003;68523;51.336;-0.846;2023-10-31T19:09:00;2;2;
79117;PMS7003;68523;51.336;-0.846;2023-10-31T19:12:00;4;2;
79117;PMS7003;68523;51.336;-0.846;2023-10-31T19:15:00;2;0;
79117;PMS7003;68523;51.336;-0.846;2023-10-31T19:18:00;2;0;
79117;PMS7003;68523;51.336;-0.846;2023-10-31T19:21:00;1;1;
79117;PMS7003;68523;51.336;-0.846;2023-10-31T19:24:00;1;1;
79117;PMS7003;68523;51.336;-0.846;2023-10-31T19:27:00;6;3;
79117;PMS7003;68523;51.336;-0.846;2023-10-31T19:30:00;0;0;
79117;PMS7003;68523;51.336;-0.846;2023-10-31T19:33:00;0;0;
79117;PMS7003;68523;51.336;-0.846;2023-10-31T19:36:00;0;0;
79117;PMS7003;68523;51.336;-0.846;2023-10-31T19:39:00;0;0;
79117;PMS7003;68523;51.336;-0.846;2023-10-31T19:42:00;2;2;
79117;PMS7003;68523;51.336;-0.846;2023-10-31T19:45:00;3;2;
79117;PMS7003;68523;51.336;-0.846;2023-10-31T19:48:00;3;2;
79117;PMS7003;68523;51.336;-0.846;2023-10-31T19:51:00;0;0;
79117;PMS7003;68523;51.336;-0.846;2023-10-31T19:54:00;0;0;
79117;PMS7003;68523;51.336;-0.846;2023-10-31T19:57:00;2;2;
79117;PMS7003;68523;51.336;-0.846;2023-10-31T20:00:00;4;2;
79117;PMS7003;68523;51.336;-0.846;2023-10-31T20:03:00;4;2;
79117;PMS7003;68523;51.336;-0.846;2023-10-31T20:06:00;5;3;